sensor_id;sensor_type;location;lat;lon;timestamp;P1;durP1;ratioP1;P2;durP2;ratioP2
14116;SDS011;7137;51.436;6.544;2022-09-01T00:01:56;2.63;;;1.00;;
14116;SDS011;7137;51.436;6.544;2022-09-01T00:04:59;3.97;;;1.10;;
14116;SDS011;7137;51.436;6.544;2022-09-01T00:08:03;3.50;;;1.30;;
14116;SDS011;7137;51.436;6.544;2022-09-01T00:11:05;4.33;;;1.30;;
14116;SDS011;7137;51.436;6.544;2022-09-01T00:14:07;2.73;;;1.07;;
14116;SDS011;7137;51.436;6.544;2022-09-01T00:17:11;3.97;;;1.10;;
14116;SDS011;7137;51.436;6.544;2022-09-01T00:20:15;3.03;;;1.10;;
14116;SDS011;7137;51.436;6.544;2022-09-01T00:23:16;3.53;;;1.20;;
14116;SDS011;7137;51.436;6.544;2022-09-01T00:26:18;1.97;;;0.90;;
14116;SDS011;7137;51.436;6.544;2022-09-01T00:29:20;2.33;;;1.00;;
14116;SDS011;7137;51.436;6.544;2022-09-01T00:32:22;3.43;;;1.30;;
14116;SDS011;7137;51.436;6.544;2022-09-01T00:35:26;4.10;;;1.13;;
14116;SDS011;7137;51.436;6.544;2022-09-01T00:38:27;3.83;;;1.20;;
14116;SDS011;7137;51.436;6.544;2022-09-01T00:41:30;1.90;;;0.80;;
14116;SDS011;7137;51.436;6.544;2022-09-01T00:44:33;3.47;;;1.10;;
14116;SDS011;7137;51.436;6.544;2022-09-01T00:47:39;4.17;;;1.30;;
14116;SDS011;7137;51.436;6.544;2022-09-01T00:50:42;2.83;;;1.23;;
14116;SDS011;7137;51.436;6.544;2022-09-01T00:53:44;3.53;;;1.20;;
14116;SDS011;7137;51.436;6.544;2022-09-01T00:56:46;2.50;;;1.17;;
14116;SDS011;7137;51.436;6.544;2022-09-01T00:59:49;2.67;;;1.20;;
14116;SDS011;7137;51.436;6.544;2022-09-01T01:02:54;2.50;;;1.30;;
14116;SDS011;7137;51.436;6.544;2022-09-01T01:05:58;2.17;;;1.00;;
14116;SDS011;7137;51.436;6.544;2022-09-01T01:09:04;4.30;;;1.20;;
14116;SDS011;7137;51.436;6.544;2022-09-01T01:12:05;2.03;;;1.10;;
14116;SDS011;7137;51.436;6.544;2022-09-01T01:15:17;3.37;;;1.20;;
14116;SDS011;7137;51.436;6.544;2022-09-01T01:18:19;2.50;;;1.17;;
14116;SDS011;7137;51.436;6.544;2022-09-01T01:21:23;2.40;;;1.10;;
14116;SDS011;7137;51.436;6.544;2022-09-01T01:24:48;3.27;;;1.20;;
14116;SDS011;7137;51.436;6.544;2022-09-01T01:27:51;2.67;;;1.03;;
14116;SDS011;7137;51.436;6.544;2022-09-01T01:31:03;2.60;;;1.20;;
14116;SDS011;7137;51.436;6.544;2022-09-01T01:34:10;3.07;;;1.13;;
14116;SDS011;7137;51.436;6.544;2022-09-01T01:37:13;3.10;;;1.00;;
14116;SDS011;7137;51.436;6.544;2022-09-01T01:40:18;1.97;;;1.00;;
14116;SDS011;7137;51.436;6.544;2022-09-01T01:43:22;3.07;;;1.10;;
14116;SDS011;7137;51.436;6.544;2022-09-01T01:46:25;4.57;;;1.50;;
14116;SDS011;7137;51.436;6.544;2022-09-01T01:49:28;3.77;;;1.20;;
14116;SDS011;7137;51.436;6.544;2022-09-01T01:52:30;3.13;;;1.20;;
14116;SDS011;7137;51.436;6.544;2022-09-01T01:55:35;3.00;;;1.30;;
14116;SDS011;7137;51.436;6.544;2022-09-01T01:58:36;3.90;;;1.20;;
14116;SDS011;7137;51.436;6.544;2022-09-01T02:01:40;2.53;;;1.17;;
14116;SDS011;7137;51.436;6.544;2022-09-01T02:04:43;3.20;;;1.20;;
14116;SDS011;7137;51.436;6.544;2022-09-01T02:07:44;3.13;;;1.20;;
14116;SDS011;7137;51.436;6.544;2022-09-01T02:10:49;2.13;;;1.23;;
14116;SDS011;7137;51.436;6.544;2022-09-01T02:13:52;3.60;;;1.37;;
14116;SDS011;7137;51.436;6.544;2022-09-01T02:16:56;3.40;;;1.20;;
14116;SDS011;7137;51.436;6.544;2022-09-01T02:19:58;2.93;;;1.20;;
14116;SDS011;7137;51.436;6.544;2022-09-01T02:22:59;3.03;;;1.20;;
14116;SDS011;7137;51.436;6.544;2022-09-01T02:26:10;3.53;;;1.30;;
14116;SDS011;7137;51.436;6.544;2022-09-01T02:29:13;2.97;;;1.10;;
14116;SDS011;7137;51.436;6.544;2022-09-01T02:32:18;4.47;;;1.40;;
14116;SDS011;7137;51.436;6.544;2022-09-01T02:35:22;6.07;;;1.53;;
14116;SDS011;7137;51.436;6.544;2022-09-01T02:38:28;3.33;;;1.30;;
14116;SDS011;7137;51.436;6.544;2022-09-01T02:41:31;4.70;;;1.40;;
14116;SDS011;7137;51.436;6.544;2022-09-01T02:44:33;4.30;;;1.30;;
14116;SDS011;7137;51.436;6.544;2022-09-01T02:47:36;2.50;;;1.23;;
14116;SDS011;7137;51.436;6.544;2022-09-01T02:50:41;3.23;;;1.20;;
14116;SDS011;7137;51.436;6.544;2022-09-01T02:53:43;3.07;;;1.47;;
14116;SDS011;7137;51.436;6.544;2022-09-01T02:56:48;3.03;;;1.30;;
14116;SDS011;7137;51.436;6.544;2022-09-01T02:59:53;3.00;;;1.40;;
14116;SDS011;7137;51.436;6.544;2022-09-01T03:02:58;3.53;;;1.50;;
14116;SDS011;7137;51.436;6.544;2022-09-01T03:06:01;4.53;;;1.77;;
14116;SDS011;7137;51.436;6.544;2022-09-01T03:09:04;4.27;;;1.40;;
14116;SDS011;7137;51.436;6.544;2022-09-01T03:12:09;5.50;;;1.77;;
14116;SDS011;7137;51.436;6.544;2022-09-01T03:15:10;4.33;;;1.43;;
14116;SDS011;7137;51.436;6.544;2022-09-01T03:18:12;3.43;;;1.73;;
14116;SDS011;7137;51.436;6.544;2022-09-01T03:21:15;4.27;;;1.40;;
14116;SDS011;7137;51.436;6.544;2022-09-01T03:24:16;4.57;;;1.67;;
14116;SDS011;7137;51.436;6.544;2022-09-01T03:27:20;4.40;;;1.80;;
14116;SDS011;7137;51.436;6.544;2022-09-01T03:30:21;4.23;;;1.60;;
14116;SDS011;7137;51.436;6.544;2022-09-01T03:33:24;4.47;;;1.53;;
14116;SDS011;7137;51.436;6.544;2022-09-01T03:36:27;4.53;;;1.50;;
14116;SDS011;7137;51.436;6.544;2022-09-01T03:39:31;3.73;;;1.40;;
14116;SDS011;7137;51.436;6.544;2022-09-01T03:42:33;5.33;;;1.43;;
14116;SDS011;7137;51.436;6.544;2022-09-01T03:45:35;4.27;;;1.47;;
14116;SDS011;7137;51.436;6.544;2022-09-01T03:48:39;4.70;;;1.50;;
14116;SDS011;7137;51.436;6.544;2022-09-01T03:51:41;3.27;;;1.50;;
14116;SDS011;7137;51.436;6.544;2022-09-01T03:54:43;6.33;;;1.60;;
14116;SDS011;7137;51.436;6.544;2022-09-01T03:57:46;3.27;;;1.40;;
14116;SDS011;7137;51.436;6.544;2022-09-01T04:00:49;3.87;;;1.60;;
14116;SDS011;7137;51.436;6.544;2022-09-01T04:03:54;4.47;;;1.40;;
14116;SDS011;7137;51.436;6.544;2022-09-01T04:06:57;3.47;;;1.40;;
14116;SDS011;7137;51.436;6.544;2022-09-01T04:10:00;5.67;;;1.63;;
14116;SDS011;7137;51.436;6.544;2022-09-01T04:13:03;3.67;;;1.43;;
14116;SDS011;7137;51.436;6.544;2022-09-01T04:16:05;4.77;;;1.67;;
14116;SDS011;7137;51.436;6.544;2022-09-01T04:19:09;3.57;;;1.63;;
14116;SDS011;7137;51.436;6.544;2022-09-01T04:22:19;4.23;;;1.70;;
14116;SDS011;7137;51.436;6.544;2022-09-01T04:25:22;3.37;;;1.47;;
14116;SDS011;7137;51.436;6.544;2022-09-01T04:28:30;4.60;;;1.70;;
14116;SDS011;7137;51.436;6.544;2022-09-01T04:31:34;6.50;;;2.03;;
14116;SDS011;7137;51.436;6.544;2022-09-01T04:34:39;6.93;;;1.80;;
14116;SDS011;7137;51.436;6.544;2022-09-01T04:37:41;3.83;;;1.60;;
14116;SDS011;7137;51.436;6.544;2022-09-01T04:40:43;3.63;;;1.90;;
14116;SDS011;7137;51.436;6.544;2022-09-01T04:43:47;5.67;;;1.83;;
14116;SDS011;7137;51.436;6.544;2022-09-01T04:46:50;7.73;;;2.03;;
14116;SDS011;7137;51.436;6.544;2022-09-01T04:49:53;4.43;;;1.80;;
14116;SDS011;7137;51.436;6.544;2022-09-01T04:52:58;4.20;;;1.83;;
14116;SDS011;7137;51.436;6.544;2022-09-01T04:56:01;5.10;;;2.00;;
14116;SDS011;7137;51.436;6.544;2022-09-01T04:59:05;5.50;;;2.10;;
14116;SDS011;7137;51.436;6.544;2022-09-01T05:02:09;6.47;;;2.00;;
14116;SDS011;7137;51.436;6.544;2022-09-01T05:05:11;6.07;;;2.20;;
14116;SDS011;7137;51.436;6.544;2022-09-01T05:08:14;4.83;;;1.97;;
14116;SDS011;7137;51.436;6.544;2022-09-01T05:11:19;5.87;;;2.10;;
14116;SDS011;7137;51.436;6.544;2022-09-01T05:14:22;5.53;;;1.90;;
14116;SDS011;7137;51.436;6.544;2022-09-01T05:17:24;6.20;;;2.03;;
14116;SDS011;7137;51.436;6.544;2022-09-01T05:20:28;6.07;;;2.07;;
14116;SDS011;7137;51.436;6.544;2022-09-01T05:23:31;5.27;;;1.97;;
14116;SDS011;7137;51.436;6.544;2022-09-01T05:26:32;4.63;;;1.90;;
14116;SDS011;7137;51.436;6.544;2022-09-01T05:29:35;4.97;;;1.83;;
14116;SDS011;7137;51.436;6.544;2022-09-01T05:32:39;5.57;;;2.00;;
14116;SDS011;7137;51.436;6.544;2022-09-01T05:35:48;5.00;;;2.23;;
14116;SDS011;7137;51.436;6.544;2022-09-01T05:38:54;5.57;;;2.37;;
14116;SDS011;7137;51.436;6.544;2022-09-01T05:41:57;5.43;;;2.20;;
14116;SDS011;7137;51.436;6.544;2022-09-01T05:45:02;6.23;;;2.10;;
14116;SDS011;7137;51.436;6.544;2022-09-01T05:48:03;5.60;;;2.23;;
14116;SDS011;7137;51.436;6.544;2022-09-01T05:51:06;6.37;;;2.23;;
14116;SDS011;7137;51.436;6.544;2022-09-01T05:54:08;6.47;;;2.57;;
14116;SDS011;7137;51.436;6.544;2022-09-01T05:57:11;6.67;;;2.20;;
14116;SDS011;7137;51.436;6.544;2022-09-01T06:00:14;9.13;;;2.27;;
14116;SDS011;7137;51.436;6.544;2022-09-01T06:03:17;7.33;;;2.30;;
14116;SDS011;7137;51.436;6.544;2022-09-01T06:06:18;5.93;;;2.20;;
14116;SDS011;7137;51.436;6.544;2022-09-01T06:09:21;6.87;;;2.03;;
14116;SDS011;7137;51.436;6.544;2022-09-01T06:12:23;5.40;;;2.40;;
14116;SDS011;7137;51.436;6.544;2022-09-01T06:15:28;7.03;;;2.43;;
14116;SDS011;7137;51.436;6.544;2022-09-01T06:18:31;7.50;;;2.33;;
14116;SDS011;7137;51.436;6.544;2022-09-01T06:21:33;6.70;;;2.53;;
14116;SDS011;7137;51.436;6.544;2022-09-01T06:24:34;7.57;;;2.77;;
14116;SDS011;7137;51.436;6.544;2022-09-01T06:27:38;6.20;;;2.73;;
14116;SDS011;7137;51.436;6.544;2022-09-01T06:30:42;6.20;;;2.70;;
14116;SDS011;7137;51.436;6.544;2022-09-01T06:33:45;6.00;;;2.47;;
14116;SDS011;7137;51.436;6.544;2022-09-01T06:36:47;11.33;;;2.93;;
14116;SDS011;7137;51.436;6.544;2022-09-01T06:39:50;9.13;;;2.90;;
14116;SDS011;7137;51.436;6.544;2022-09-01T06:42:52;5.07;;;2.20;;
14116;SDS011;7137;51.436;6.544;2022-09-01T06:45:55;7.27;;;2.30;;
14116;SDS011;7137;51.436;6.544;2022-09-01T06:48:57;9.67;;;1.90;;
14116;SDS011;7137;51.436;6.544;2022-09-01T06:52:00;6.23;;;1.97;;
14116;SDS011;7137;51.436;6.544;2022-09-01T06:55:03;5.33;;;2.07;;
14116;SDS011;7137;51.436;6.544;2022-09-01T06:58:05;7.17;;;1.90;;
14116;SDS011;7137;51.436;6.544;2022-09-01T07:01:09;6.37;;;1.97;;
14116;SDS011;7137;51.436;6.544;2022-09-01T07:04:15;5.77;;;1.90;;
14116;SDS011;7137;51.436;6.544;2022-09-01T07:07:21;5.57;;;2.00;;
14116;SDS011;7137;51.436;6.544;2022-09-01T07:10:23;6.30;;;2.20;;
14116;SDS011;7137;51.436;6.544;2022-09-01T07:13:26;5.93;;;2.23;;
14116;SDS011;7137;51.436;6.544;2022-09-01T07:16:31;5.00;;;1.80;;
14116;SDS011;7137;51.436;6.544;2022-09-01T07:19:38;4.80;;;1.60;;
14116;SDS011;7137;51.436;6.544;2022-09-01T07:22:40;4.93;;;1.70;;
14116;SDS011;7137;51.436;6.544;2022-09-01T07:25:42;8.30;;;2.07;;
14116;SDS011;7137;51.436;6.544;2022-09-01T07:28:48;5.90;;;1.70;;
14116;SDS011;7137;51.436;6.544;2022-09-01T07:31:51;4.80;;;1.60;;
14116;SDS011;7137;51.436;6.544;2022-09-01T07:34:56;7.17;;;1.80;;
14116;SDS011;7137;51.436;6.544;2022-09-01T07:37:58;6.03;;;1.60;;
14116;SDS011;7137;51.436;6.544;2022-09-01T07:40:59;4.30;;;1.93;;
14116;SDS011;7137;51.436;6.544;2022-09-01T07:44:01;4.17;;;1.47;;
14116;SDS011;7137;51.436;6.544;2022-09-01T07:47:05;5.67;;;1.67;;
14116;SDS011;7137;51.436;6.544;2022-09-01T07:50:08;5.93;;;1.60;;
14116;SDS011;7137;51.436;6.544;2022-09-01T07:53:11;5.03;;;1.50;;
14116;SDS011;7137;51.436;6.544;2022-09-01T07:56:18;6.47;;;1.67;;
14116;SDS011;7137;51.436;6.544;2022-09-01T07:59:20;5.47;;;1.53;;
14116;SDS011;7137;51.436;6.544;2022-09-01T08:02:24;4.73;;;1.70;;
14116;SDS011;7137;51.436;6.544;2022-09-01T08:05:26;3.07;;;1.30;;
14116;SDS011;7137;51.436;6.544;2022-09-01T08:08:29;6.13;;;1.50;;
14116;SDS011;7137;51.436;6.544;2022-09-01T08:11:30;4.70;;;1.80;;
14116;SDS011;7137;51.436;6.544;2022-09-01T08:14:33;5.07;;;2.07;;
14116;SDS011;7137;51.436;6.544;2022-09-01T08:17:37;5.33;;;1.97;;
14116;SDS011;7137;51.436;6.544;2022-09-01T08:20:39;4.23;;;1.60;;
14116;SDS011;7137;51.436;6.544;2022-09-01T08:23:44;3.87;;;1.43;;
14116;SDS011;7137;51.436;6.544;2022-09-01T08:26:46;6.83;;;1.60;;
14116;SDS011;7137;51.436;6.544;2022-09-01T08:29:49;3.67;;;1.60;;
14116;SDS011;7137;51.436;6.544;2022-09-01T08:32:52;4.47;;;1.63;;
14116;SDS011;7137;51.436;6.544;2022-09-01T08:35:53;3.53;;;1.30;;
14116;SDS011;7137;51.436;6.544;2022-09-01T08:38:56;6.83;;;1.93;;
14116;SDS011;7137;51.436;6.544;2022-09-01T08:41:59;5.07;;;1.60;;
14116;SDS011;7137;51.436;6.544;2022-09-01T08:45:10;4.53;;;1.40;;
14116;SDS011;7137;51.436;6.544;2022-09-01T08:48:18;6.33;;;1.30;;
14116;SDS011;7137;51.436;6.544;2022-09-01T08:51:23;5.60;;;1.73;;
14116;SDS011;7137;51.436;6.544;2022-09-01T08:54:31;6.57;;;1.20;;
14116;SDS011;7137;51.436;6.544;2022-09-01T08:57:41;4.67;;;1.20;;
14116;SDS011;7137;51.436;6.544;2022-09-01T09:00:45;3.27;;;1.10;;
14116;SDS011;7137;51.436;6.544;2022-09-01T09:03:59;4.97;;;1.07;;
14116;SDS011;7137;51.436;6.544;2022-09-01T09:07:16;2.50;;;1.10;;
14116;SDS011;7137;51.436;6.544;2022-09-01T09:10:31;3.83;;;1.20;;
14116;SDS011;7137;51.436;6.544;2022-09-01T09:13:44;3.20;;;1.00;;
14116;SDS011;7137;51.436;6.544;2022-09-01T09:16:57;3.50;;;1.20;;
14116;SDS011;7137;51.436;6.544;2022-09-01T09:20:02;4.23;;;1.23;;
14116;SDS011;7137;51.436;6.544;2022-09-01T09:23:06;1.93;;;1.10;;
14116;SDS011;7137;51.436;6.544;2022-09-01T09:26:16;2.00;;;1.00;;
14116;SDS011;7137;51.436;6.544;2022-09-01T09:29:20;4.77;;;1.30;;
14116;SDS011;7137;51.436;6.544;2022-09-01T09:32:24;3.13;;;1.00;;
14116;SDS011;7137;51.436;6.544;2022-09-01T09:35:44;4.93;;;0.97;;
14116;SDS011;7137;51.436;6.544;2022-09-01T09:38:46;1.60;;;0.80;;
14116;SDS011;7137;51.436;6.544;2022-09-01T09:42:06;2.93;;;1.00;;
14116;SDS011;7137;51.436;6.544;2022-09-01T09:45:15;2.70;;;0.77;;
14116;SDS011;7137;51.436;6.544;2022-09-01T09:48:26;2.27;;;0.83;;
14116;SDS011;7137;51.436;6.544;2022-09-01T09:51:31;1.50;;;0.63;;
14116;SDS011;7137;51.436;6.544;2022-09-01T09:54:33;1.60;;;0.70;;
14116;SDS011;7137;51.436;6.544;2022-09-01T09:57:37;3.50;;;0.90;;
14116;SDS011;7137;51.436;6.544;2022-09-01T10:00:40;3.00;;;1.00;;
14116;SDS011;7137;51.436;6.544;2022-09-01T10:04:02;3.40;;;0.83;;
14116;SDS011;7137;51.436;6.544;2022-09-01T10:10:36;2.40;;;1.03;;
14116;SDS011;7137;51.436;6.544;2022-09-01T10:13:39;3.67;;;0.93;;
14116;SDS011;7137;51.436;6.544;2022-09-01T10:16:40;2.30;;;0.90;;
14116;SDS011;7137;51.436;6.544;2022-09-01T10:19:49;3.40;;;1.07;;
14116;SDS011;7137;51.436;6.544;2022-09-01T10:22:57;3.33;;;1.07;;
14116;SDS011;7137;51.436;6.544;2022-09-01T10:25:59;1.57;;;0.80;;
14116;SDS011;7137;51.436;6.544;2022-09-01T10:29:05;2.20;;;1.00;;
14116;SDS011;7137;51.436;6.544;2022-09-01T10:32:11;2.43;;;0.93;;
14116;SDS011;7137;51.436;6.544;2022-09-01T10:35:18;2.90;;;1.07;;
14116;SDS011;7137;51.436;6.544;2022-09-01T10:38:25;2.73;;;1.20;;
14116;SDS011;7137;51.436;6.544;2022-09-01T10:41:49;2.97;;;0.90;;
14116;SDS011;7137;51.436;6.544;2022-09-01T10:44:54;3.13;;;0.90;;
14116;SDS011;7137;51.436;6.544;2022-09-01T10:51:43;1.83;;;0.93;;
14116;SDS011;7137;51.436;6.544;2022-09-01T10:54:51;2.83;;;1.20;;
14116;SDS011;7137;51.436;6.544;2022-09-01T10:57:59;2.97;;;1.20;;
14116;SDS011;7137;51.436;6.544;2022-09-01T11:05:15;4.37;;;1.20;;
14116;SDS011;7137;51.436;6.544;2022-09-01T11:08:20;4.73;;;1.40;;
14116;SDS011;7137;51.436;6.544;2022-09-01T11:11:27;3.63;;;1.23;;
14116;SDS011;7137;51.436;6.544;2022-09-01T11:14:32;3.40;;;1.30;;
14116;SDS011;7137;51.436;6.544;2022-09-01T11:17:53;2.90;;;1.20;;
14116;SDS011;7137;51.436;6.544;2022-09-01T11:21:12;2.53;;;1.10;;
14116;SDS011;7137;51.436;6.544;2022-09-01T11:31:38;3.90;;;1.00;;
14116;SDS011;7137;51.436;6.544;2022-09-01T11:34:42;5.60;;;1.10;;
14116;SDS011;7137;51.436;6.544;2022-09-01T11:37:46;3.57;;;1.13;;
14116;SDS011;7137;51.436;6.544;2022-09-01T11:40:53;2.73;;;1.13;;
14116;SDS011;7137;51.436;6.544;2022-09-01T11:43:56;1.80;;;0.90;;
14116;SDS011;7137;51.436;6.544;2022-09-01T11:47:01;3.80;;;1.30;;
14116;SDS011;7137;51.436;6.544;2022-09-01T11:50:06;5.07;;;1.70;;
14116;SDS011;7137;51.436;6.544;2022-09-01T11:53:19;3.00;;;1.27;;
14116;SDS011;7137;51.436;6.544;2022-09-01T11:56:23;4.03;;;1.20;;
14116;SDS011;7137;51.436;6.544;2022-09-01T11:59:30;2.77;;;1.20;;
14116;SDS011;7137;51.436;6.544;2022-09-01T12:02:40;3.00;;;1.20;;
14116;SDS011;7137;51.436;6.544;2022-09-01T12:05:43;2.40;;;1.10;;
14116;SDS011;7137;51.436;6.544;2022-09-01T12:08:53;3.87;;;1.00;;
14116;SDS011;7137;51.436;6.544;2022-09-01T12:11:56;2.73;;;1.00;;
14116;SDS011;7137;51.436;6.544;2022-09-01T12:14:58;3.53;;;1.60;;
14116;SDS011;7137;51.436;6.544;2022-09-01T12:18:11;2.67;;;1.20;;
14116;SDS011;7137;51.436;6.544;2022-09-01T12:21:16;3.93;;;1.13;;
14116;SDS011;7137;51.436;6.544;2022-09-01T12:24:21;5.00;;;1.67;;
14116;SDS011;7137;51.436;6.544;2022-09-01T12:27:24;5.10;;;1.40;;
14116;SDS011;7137;51.436;6.544;2022-09-01T12:30:25;3.23;;;1.33;;
14116;SDS011;7137;51.436;6.544;2022-09-01T12:33:29;4.03;;;1.00;;
14116;SDS011;7137;51.436;6.544;2022-09-01T12:36:32;2.80;;;1.07;;
14116;SDS011;7137;51.436;6.544;2022-09-01T12:39:36;3.43;;;1.20;;
14116;SDS011;7137;51.436;6.544;2022-09-01T12:42:39;2.67;;;1.23;;
14116;SDS011;7137;51.436;6.544;2022-09-01T12:45:50;3.73;;;1.40;;
14116;SDS011;7137;51.436;6.544;2022-09-01T12:48:54;5.17;;;1.30;;
14116;SDS011;7137;51.436;6.544;2022-09-01T12:52:21;2.50;;;1.20;;
14116;SDS011;7137;51.436;6.544;2022-09-01T12:55:25;3.97;;;1.20;;
14116;SDS011;7137;51.436;6.544;2022-09-01T12:58:29;2.60;;;1.03;;
14116;SDS011;7137;51.436;6.544;2022-09-01T13:01:33;2.83;;;1.10;;
14116;SDS011;7137;51.436;6.544;2022-09-01T13:04:37;3.10;;;1.30;;
14116;SDS011;7137;51.436;6.544;2022-09-01T13:07:41;4.30;;;1.20;;
14116;SDS011;7137;51.436;6.544;2022-09-01T13:10:43;3.13;;;1.20;;
14116;SDS011;7137;51.436;6.544;2022-09-01T13:13:46;2.67;;;1.17;;
14116;SDS011;7137;51.436;6.544;2022-09-01T13:16:48;3.87;;;1.10;;
14116;SDS011;7137;51.436;6.544;2022-09-01T13:19:51;3.17;;;1.20;;
14116;SDS011;7137;51.436;6.544;2022-09-01T13:22:52;2.47;;;1.17;;
14116;SDS011;7137;51.436;6.544;2022-09-01T13:25:54;2.20;;;1.20;;
14116;SDS011;7137;51.436;6.544;2022-09-01T13:28:58;3.17;;;1.30;;
14116;SDS011;7137;51.436;6.544;2022-09-01T13:32:00;4.00;;;1.30;;
14116;SDS011;7137;51.436;6.544;2022-09-01T13:35:04;2.13;;;1.10;;
14116;SDS011;7137;51.436;6.544;2022-09-01T13:38:06;2.23;;;1.17;;
14116;SDS011;7137;51.436;6.544;2022-09-01T13:41:08;1.83;;;1.00;;
14116;SDS011;7137;51.436;6.544;2022-09-01T13:44:10;2.70;;;1.30;;
14116;SDS011;7137;51.436;6.544;2022-09-01T13:47:12;3.93;;;1.20;;
14116;SDS011;7137;51.436;6.544;2022-09-01T13:50:16;2.73;;;1.20;;
14116;SDS011;7137;51.436;6.544;2022-09-01T13:53:19;2.37;;;1.20;;
14116;SDS011;7137;51.436;6.544;2022-09-01T13:56:21;6.77;;;1.60;;
14116;SDS011;7137;51.436;6.544;2022-09-01T13:59:22;2.90;;;1.20;;
14116;SDS011;7137;51.436;6.544;2022-09-01T14:02:24;2.53;;;1.10;;
14116;SDS011;7137;51.436;6.544;2022-09-01T14:05:28;3.30;;;1.30;;
14116;SDS011;7137;51.436;6.544;2022-09-01T14:08:30;2.90;;;1.23;;
14116;SDS011;7137;51.436;6.544;2022-09-01T14:11:33;3.20;;;1.13;;
14116;SDS011;7137;51.436;6.544;2022-09-01T14:14:35;2.90;;;1.30;;
14116;SDS011;7137;51.436;6.544;2022-09-01T14:17:37;2.83;;;1.20;;
14116;SDS011;7137;51.436;6.544;2022-09-01T14:20:41;2.67;;;1.30;;
14116;SDS011;7137;51.436;6.544;2022-09-01T14:23:44;2.90;;;1.30;;
14116;SDS011;7137;51.436;6.544;2022-09-01T14:26:45;2.07;;;1.10;;
14116;SDS011;7137;51.436;6.544;2022-09-01T14:29:50;3.17;;;1.33;;
14116;SDS011;7137;51.436;6.544;2022-09-01T14:32:52;2.77;;;1.10;;
14116;SDS011;7137;51.436;6.544;2022-09-01T14:35:55;2.73;;;1.40;;
14116;SDS011;7137;51.436;6.544;2022-09-01T14:38:57;3.90;;;1.50;;
14116;SDS011;7137;51.436;6.544;2022-09-01T14:41:58;3.50;;;1.13;;
14116;SDS011;7137;51.436;6.544;2022-09-01T14:45:00;7.13;;;2.33;;
14116;SDS011;7137;51.436;6.544;2022-09-01T14:48:02;17.30;;;4.60;;
14116;SDS011;7137;51.436;6.544;2022-09-01T14:51:06;5.47;;;1.63;;
14116;SDS011;7137;51.436;6.544;2022-09-01T14:54:09;3.50;;;1.30;;
14116;SDS011;7137;51.436;6.544;2022-09-01T14:57:11;5.00;;;1.50;;
14116;SDS011;7137;51.436;6.544;2022-09-01T15:00:13;2.87;;;1.20;;
14116;SDS011;7137;51.436;6.544;2022-09-01T15:03:15;5.87;;;1.73;;
14116;SDS011;7137;51.436;6.544;2022-09-01T15:06:19;4.47;;;1.30;;
14116;SDS011;7137;51.436;6.544;2022-09-01T15:09:23;4.53;;;1.47;;
14116;SDS011;7137;51.436;6.544;2022-09-01T15:12:25;5.27;;;1.80;;
14116;SDS011;7137;51.436;6.544;2022-09-01T15:15:30;4.70;;;1.30;;
14116;SDS011;7137;51.436;6.544;2022-09-01T15:18:32;3.47;;;1.30;;
14116;SDS011;7137;51.436;6.544;2022-09-01T15:21:35;2.90;;;1.20;;
14116;SDS011;7137;51.436;6.544;2022-09-01T15:24:37;8.90;;;2.10;;
14116;SDS011;7137;51.436;6.544;2022-09-01T15:27:39;4.30;;;1.60;;
14116;SDS011;7137;51.436;6.544;2022-09-01T15:30:40;5.37;;;1.60;;
14116;SDS011;7137;51.436;6.544;2022-09-01T15:33:43;5.33;;;1.57;;
14116;SDS011;7137;51.436;6.544;2022-09-01T15:36:47;3.87;;;1.27;;
14116;SDS011;7137;51.436;6.544;2022-09-01T15:39:50;2.70;;;1.10;;
14116;SDS011;7137;51.436;6.544;2022-09-01T15:42:51;4.10;;;1.47;;
14116;SDS011;7137;51.436;6.544;2022-09-01T15:45:54;4.00;;;1.10;;
14116;SDS011;7137;51.436;6.544;2022-09-01T15:48:57;3.60;;;1.30;;
14116;SDS011;7137;51.436;6.544;2022-09-01T15:52:00;3.30;;;1.17;;
14116;SDS011;7137;51.436;6.544;2022-09-01T15:55:02;2.10;;;1.20;;
14116;SDS011;7137;51.436;6.544;2022-09-01T15:58:03;3.00;;;1.20;;
14116;SDS011;7137;51.436;6.544;2022-09-01T16:01:05;3.80;;;1.30;;
14116;SDS011;7137;51.436;6.544;2022-09-01T16:04:07;2.97;;;1.20;;
14116;SDS011;7137;51.436;6.544;2022-09-01T16:07:14;2.67;;;1.20;;
14116;SDS011;7137;51.436;6.544;2022-09-01T16:10:17;4.00;;;1.10;;
14116;SDS011;7137;51.436;6.544;2022-09-01T16:13:19;3.43;;;1.20;;
14116;SDS011;7137;51.436;6.544;2022-09-01T16:16:34;2.90;;;1.20;;
14116;SDS011;7137;51.436;6.544;2022-09-01T16:19:46;2.00;;;1.07;;
14116;SDS011;7137;51.436;6.544;2022-09-01T16:22:53;2.03;;;1.00;;
14116;SDS011;7137;51.436;6.544;2022-09-01T16:25:57;4.07;;;1.20;;
14116;SDS011;7137;51.436;6.544;2022-09-01T16:29:00;2.67;;;1.20;;
14116;SDS011;7137;51.436;6.544;2022-09-01T16:32:07;2.97;;;1.33;;
14116;SDS011;7137;51.436;6.544;2022-09-01T16:35:09;2.63;;;1.20;;
14116;SDS011;7137;51.436;6.544;2022-09-01T16:38:15;2.97;;;1.20;;
14116;SDS011;7137;51.436;6.544;2022-09-01T16:41:32;1.63;;;1.10;;
14116;SDS011;7137;51.436;6.544;2022-09-01T16:44:45;3.93;;;1.30;;
14116;SDS011;7137;51.436;6.544;2022-09-01T16:47:58;3.00;;;1.27;;
14116;SDS011;7137;51.436;6.544;2022-09-01T16:51:07;3.90;;;1.30;;
14116;SDS011;7137;51.436;6.544;2022-09-01T16:54:16;3.87;;;1.47;;
14116;SDS011;7137;51.436;6.544;2022-09-01T16:57:27;5.07;;;1.50;;
14116;SDS011;7137;51.436;6.544;2022-09-01T17:00:43;5.17;;;1.73;;
14116;SDS011;7137;51.436;6.544;2022-09-01T17:03:54;5.53;;;2.03;;
14116;SDS011;7137;51.436;6.544;2022-09-01T17:07:10;3.47;;;1.70;;
14116;SDS011;7137;51.436;6.544;2022-09-01T17:10:19;6.93;;;1.90;;
14116;SDS011;7137;51.436;6.544;2022-09-01T17:13:30;4.33;;;1.30;;
14116;SDS011;7137;51.436;6.544;2022-09-01T17:16:38;4.83;;;1.40;;
14116;SDS011;7137;51.436;6.544;2022-09-01T17:19:44;3.07;;;1.40;;
14116;SDS011;7137;51.436;6.544;2022-09-01T17:22:52;3.60;;;1.33;;
14116;SDS011;7137;51.436;6.544;2022-09-01T17:26:00;3.37;;;1.27;;
14116;SDS011;7137;51.436;6.544;2022-09-01T17:29:06;2.37;;;1.20;;
14116;SDS011;7137;51.436;6.544;2022-09-01T17:32:28;3.47;;;1.30;;
14116;SDS011;7137;51.436;6.544;2022-09-01T17:36:02;2.10;;;1.10;;
14116;SDS011;7137;51.436;6.544;2022-09-01T17:39:13;3.87;;;1.17;;
14116;SDS011;7137;51.436;6.544;2022-09-01T17:42:28;3.87;;;1.30;;
14116;SDS011;7137;51.436;6.544;2022-09-01T17:45:36;2.83;;;1.23;;
14116;SDS011;7137;51.436;6.544;2022-09-01T17:48:51;2.43;;;1.27;;
14116;SDS011;7137;51.436;6.544;2022-09-01T17:51:57;2.87;;;1.20;;
14116;SDS011;7137;51.436;6.544;2022-09-01T17:55:09;3.20;;;1.23;;
14116;SDS011;7137;51.436;6.544;2022-09-01T17:58:26;2.67;;;1.30;;
14116;SDS011;7137;51.436;6.544;2022-09-01T18:01:39;3.27;;;1.10;;
14116;SDS011;7137;51.436;6.544;2022-09-01T18:08:18;2.60;;;1.40;;
14116;SDS011;7137;51.436;6.544;2022-09-01T18:11:31;3.77;;;1.07;;
14116;SDS011;7137;51.436;6.544;2022-09-01T18:14:44;4.10;;;1.10;;
14116;SDS011;7137;51.436;6.544;2022-09-01T18:17:52;3.30;;;1.40;;
14116;SDS011;7137;51.436;6.544;2022-09-01T18:21:01;4.40;;;1.30;;
14116;SDS011;7137;51.436;6.544;2022-09-01T18:24:10;4.30;;;1.10;;
14116;SDS011;7137;51.436;6.544;2022-09-01T18:27:14;3.93;;;1.07;;
14116;SDS011;7137;51.436;6.544;2022-09-01T18:30:18;1.83;;;1.00;;
14116;SDS011;7137;51.436;6.544;2022-09-01T18:33:25;2.37;;;0.97;;
14116;SDS011;7137;51.436;6.544;2022-09-01T18:36:31;2.27;;;1.10;;
14116;SDS011;7137;51.436;6.544;2022-09-01T18:39:48;3.13;;;0.97;;
14116;SDS011;7137;51.436;6.544;2022-09-01T18:42:55;2.53;;;1.00;;
14116;SDS011;7137;51.436;6.544;2022-09-01T18:46:08;3.33;;;1.20;;
14116;SDS011;7137;51.436;6.544;2022-09-01T18:49:17;3.03;;;1.13;;
14116;SDS011;7137;51.436;6.544;2022-09-01T18:52:36;3.07;;;1.20;;
14116;SDS011;7137;51.436;6.544;2022-09-01T18:55:52;3.73;;;0.93;;
14116;SDS011;7137;51.436;6.544;2022-09-01T18:59:02;3.47;;;1.17;;
14116;SDS011;7137;51.436;6.544;2022-09-01T19:02:25;3.90;;;1.10;;
14116;SDS011;7137;51.436;6.544;2022-09-01T19:05:48;3.30;;;1.20;;
14116;SDS011;7137;51.436;6.544;2022-09-01T19:12:21;5.33;;;1.13;;
14116;SDS011;7137;51.436;6.544;2022-09-01T19:15:33;4.10;;;1.50;;
14116;SDS011;7137;51.436;6.544;2022-09-01T19:18:43;3.23;;;1.10;;